Time;durP1;ratioP1;P1;durP2;ratioP2;P2;SDS_P1;SDS_P2;PMS_P1;PMS_P2;Temp;Humidity;BMP_temperature;BMP_pressure;BME280_temperature;BME280_humidity;BME280_pressure;Samples;Min_cycle;Max_cycle;Signal;HPM_P1;HPM_P2
2023/01/31 00:01:57;;;;;;;5.57;2.72;;;;;;;7.42;100.00;96948.22;5036462;28;20144;-53
2023/01/31 00:04:25;;;;;;;3.13;2.47;;;;;;;7.64;100.00;96929.06;5038167;28;20116;-58
2023/01/31 00:06:54;;;;;;;6.55;3.60;;;;;;;7.66;100.00;96943.75;5036688;28;20153;-52
2023/01/31 00:09:22;;;;;;;8.65;3.83;;;;;;;7.49;100.00;96941.56;5038330;28;20137;-54
2023/01/31 00:11:52;;;;;;;4.38;3.15;;;;;;;7.81;100.00;96944.38;5038197;28;20567;-54
2023/01/31 00:14:21;;;;;;;3.92;2.95;;;;;;;7.68;100.00;96939.25;5035971;28;20136;-52
2023/01/31 00:16:51;;;;;;;5.67;3.17;;;;;;;7.47;100.00;96940.84;5029749;28;20453;-54
2023/01/31 00:19:19;;;;;;;4.47;2.70;;;;;;;7.93;100.00;96950.53;5028912;28;20135;-56
2023/01/31 00:21:47;;;;;;;4.22;2.83;;;;;;;7.91;100.00;96953.25;5023616;28;20072;-57
2023/01/31 00:24:16;;;;;;;5.85;2.58;;;;;;;7.70;100.00;96953.06;5037050;28;20121;-55
2023/01/31 00:26:44;;;;;;;4.85;3.10;;;;;;;7.78;100.00;96957.78;5038337;28;20140;-56
2023/01/31 00:29:13;;;;;;;5.18;2.72;;;;;;;7.88;100.00;96965.78;5037398;28;20136;-53
2023/01/31 00:31:42;;;;;;;7.05;2.97;;;;;;;7.79;100.00;96957.66;5035669;28;20076;-52
2023/01/31 00:34:11;;;;;;;6.03;4.07;;;;;;;8.32;100.00;96955.34;5033799;28;20588;-52
2023/01/31 00:36:39;;;;;;;4.43;3.58;;;;;;;7.47;100.00;96959.22;5049378;28;20080;-55
2023/01/31 00:39:08;;;;;;;4.43;3.08;;;;;;;7.47;100.00;96935.59;5036008;28;20120;-55
2023/01/31 00:41:38;;;;;;;5.85;3.33;;;;;;;7.73;100.00;96934.47;5028501;28;20592;-57
2023/01/31 00:44:07;;;;;;;6.78;3.15;;;;;;;7.61;100.00;96945.91;5040736;28;20065;-53
2023/01/31 00:46:35;;;;;;;6.40;3.28;;;;;;;7.71;100.00;96939.03;5044921;28;20076;-55
2023/01/31 00:49:05;;;;;;;9.35;3.33;;;;;;;7.67;100.00;96944.59;5043624;28;20132;-56
2023/01/31 00:51:34;;;;;;;4.10;3.00;;;;;;;7.69;100.00;96933.03;5040309;28;20450;-56
2023/01/31 00:54:03;;;;;;;6.25;3.25;;;;;;;7.72;100.00;96927.56;5043808;28;20508;-54
2023/01/31 00:56:31;;;;;;;3.75;2.83;;;;;;;7.55;100.00;96922.75;5037302;28;20539;-54
2023/01/31 00:58:59;;;;;;;7.32;3.33;;;;;;;8.00;100.00;96941.22;5039091;28;20127;-50
2023/01/31 01:01:28;;;;;;;7.30;3.80;;;;;;;7.78;100.00;96945.47;5038733;28;20135;-56
2023/01/31 01:03:57;;;;;;;6.43;3.33;;;;;;;7.87;100.00;96943.09;5043062;28;20072;-56
2023/01/31 01:06:28;;;;;;;3.70;2.85;;;;;;;7.91;100.00;96937.50;5039174;28;20495;-57
2023/01/31 01:08:58;;;;;;;7.10;3.25;;;;;;;7.54;100.00;96936.81;5038735;28;20124;-58
2023/01/31 01:11:29;;;;;;;8.43;3.13;;;;;;;7.74;100.00;96944.03;5044524;28;20125;-56
2023/01/31 01:13:57;;;;;;;;;;;;;;;7.97;100.00;96942.28;5048458;28;20069;-56
2023/01/31 01:16:27;;;;;;;5.30;3.17;;;;;;;7.60;100.00;96952.94;5043872;28;20011;-53
2023/01/31 01:18:56;;;;;;;8.52;4.05;;;;;;;7.72;100.00;96945.94;5046263;28;20486;-54
2023/01/31 01:21:27;;;;;;;4.38;3.08;;;;;;;7.68;100.00;96954.16;5041533;28;20096;-53
2023/01/31 01:23:58;;;;;;;6.68;3.35;;;;;;;8.33;100.00;96951.78;5040217;28;20084;-55
2023/01/31 01:26:27;;;;;;;;;;;;;;;8.35;100.00;96951.66;5042557;28;20051;-56
2023/01/31 01:28:56;;;;;;;8.20;2.70;;;;;;;8.05;100.00;96954.81;5042953;28;19967;-51
2023/01/31 01:31:28;;;;;;;5.25;3.38;;;;;;;8.47;100.00;96952.53;5042370;28;20133;-54
2023/01/31 01:33:59;;;;;;;7.35;3.60;;;;;;;7.93;100.00;96951.34;5042565;28;20483;-53
2023/01/31 01:36:29;;;;;;;7.53;3.67;;;;;;;8.21;100.00;96950.09;5043075;28;20132;-51
2023/01/31 01:38:58;;;;;;;;;;;;;;;8.75;100.00;96951.22;5041594;28;21335;-56
2023/01/31 01:41:26;;;;;;;5.72;3.08;;;;;;;8.70;100.00;96958.59;5042646;28;20480;-55
2023/01/31 01:43:56;;;;;;;7.53;3.00;;;;;;;7.98;100.00;96967.63;5049264;28;20113;-52
2023/01/31 01:46:28;;;;;;;7.35;3.70;;;;;;;8.06;100.00;96969.66;5045256;28;20095;-56
2023/01/31 01:48:59;;;;;;;7.22;3.60;;;;;;;8.22;100.00;96962.25;5046004;28;20076;-53
2023/01/31 01:51:30;;;;;;;6.32;3.20;;;;;;;8.04;100.00;96955.78;5045705;28;20528;-55
2023/01/31 01:54:01;;;;;;;6.72;3.50;;;;;;;8.04;100.00;96956.63;5040937;28;20481;-57
2023/01/31 01:56:33;;;;;;;3.72;2.83;;;;;;;7.69;100.00;96961.09;5042703;28;20124;-56
2023/01/31 01:59:03;;;;;;;5.00;3.15;;;;;;;7.81;100.00;96963.63;5043167;28;20133;-51
2023/01/31 02:01:34;;;;;;;4.60;3.25;;;;;;;7.85;100.00;96969.50;5042354;28;20087;-55
2023/01/31 02:04:04;;;;;;;9.75;3.88;;;;;;;7.80;100.00;96969.81;5041318;28;20135;-56
2023/01/31 02:06:33;;;;;;;5.38;3.08;;;;;;;7.37;100.00;96977.41;5048744;28;20200;-54
2023/01/31 02:09:03;;;;;;;7.37;3.80;;;;;;;8.01;100.00;96962.09;5058128;28;20091;-53
2023/01/31 02:11:32;;;;;;;7.10;3.33;;;;;;;7.84;100.00;96968.66;5052197;28;20071;-51
2023/01/31 02:14:02;;;;;;;7.20;3.53;;;;;;;7.83;100.00;96976.63;5042113;28;20081;-57
2023/01/31 02:16:31;;;;;;;6.90;3.72;;;;;;;7.74;100.00;96979.94;5042319;28;20080;-58
2023/01/31 02:19:00;;;;;;;6.82;4.15;;;;;;;7.63;100.00;96982.53;5039981;28;20156;-51
2023/01/31 02:22:03;;;;;;;6.20;3.53;;;;;;;7.87;100.00;96979.88;5041523;28;20156;-57
2023/01/31 02:24:57;;;;;;;5.55;3.80;;;;;;;7.56;100.00;96979.53;5041269;28;20096;-57
2023/01/31 02:28:01;;;;;;;6.05;4.07;;;;;;;7.68;100.00;96985.66;5044772;28;20529;-54
2023/01/31 02:31:00;;;;;;;5.88;3.42;;;;;;;7.32;100.00;96988.22;5039080;28;20457;-50
2023/01/31 02:33:31;;;;;;;9.18;4.93;;;;;;;7.38;100.00;96986.97;5042969;28;20131;-54
2023/01/31 02:36:06;;;;;;;11.52;4.65;;;;;;;7.60;100.00;96981.81;5041544;28;20117;-54
2023/01/31 02:38:45;;;;;;;8.13;3.92;;;;;;;7.19;100.00;96984.84;5040800;28;20072;-50
2023/01/31 02:41:17;;;;;;;11.52;5.05;;;;;;;7.11;100.00;96984.53;5046691;28;20084;-54
2023/01/31 02:46:43;;;;;;;6.70;3.88;;;;;;;7.37;100.00;96993.16;5040790;28;20128;-53
2023/01/31 02:49:33;;;;;;;10.35;4.28;;;;;;;7.25;100.00;96994.03;5039458;28;20091;-57
2023/01/31 02:52:16;;;;;;;6.53;3.90;;;;;;;7.44;100.00;96994.38;5047417;28;20491;-56
2023/01/31 02:57:37;;;;;;;6.07;3.33;;;;;;;7.49;100.00;96994.03;5044957;28;20111;-51
2023/01/31 03:00:06;;;;;;;5.70;3.63;;;;;;;7.07;100.00;97009.31;5039087;28;20477;-54
2023/01/31 03:02:35;;;;;;;6.00;4.18;;;;;;;6.96;100.00;97011.88;5041662;28;20092;-54
2023/01/31 03:05:05;;;;;;;4.80;3.38;;;;;;;7.11;100.00;97013.38;5037556;28;20091;-56
2023/01/31 03:07:36;;;;;;;8.13;4.30;;;;;;;7.22;100.00;97015.25;5040653;28;20552;-55
2023/01/31 03:10:16;;;;;;;5.60;3.28;;;;;;;7.28;100.00;97006.94;5042830;28;20078;-52
2023/01/31 03:12:58;;;;;;;8.00;3.53;;;;;;;7.01;100.00;97007.13;5044117;28;20079;-54
2023/01/31 03:18:29;;;;;;;8.05;5.13;;;;;;;6.89;100.00;96999.19;5044770;28;20077;-55
2023/01/31 03:21:00;;;;;;;;;;;;;;;7.05;100.00;97000.72;5041117;28;20099;-53
2023/01/31 03:23:30;;;;;;;5.53;3.30;;;;;;;7.09;100.00;97007.44;5043474;28;19979;-53
2023/01/31 03:26:00;;;;;;;7.80;4.00;;;;;;;7.35;100.00;97026.53;5041299;28;20096;-55
2023/01/31 03:28:31;;;;;;;3.92;2.80;;;;;;;6.97;100.00;97022.25;5042207;28;20191;-51
2023/01/31 03:31:02;;;;;;;6.43;3.33;;;;;;;7.08;100.00;97035.41;5039631;28;20472;-53
2023/01/31 03:33:34;;;;;;;7.72;3.90;;;;;;;7.10;100.00;97032.69;5041249;28;20143;-53
2023/01/31 03:36:09;;;;;;;8.75;3.40;;;;;;;6.86;100.00;97028.25;5043584;28;20140;-52
2023/01/31 03:38:44;;;;;;;6.40;3.50;;;;;;;6.98;100.00;97033.56;5041075;28;20080;-51
2023/01/31 03:41:16;;;;;;;7.30;3.13;;;;;;;7.16;100.00;97045.38;5042359;28;20087;-53
2023/01/31 03:43:51;;;;;;;8.77;3.38;;;;;;;6.84;100.00;97040.59;5039236;28;20088;-54
2023/01/31 03:46:22;;;;;;;6.95;3.38;;;;;;;6.87;100.00;97042.19;5040279;28;20091;-52
2023/01/31 03:48:53;;;;;;;8.65;3.65;;;;;;;6.94;100.00;97040.81;5044357;28;20083;-55
2023/01/31 03:51:27;;;;;;;6.78;3.55;;;;;;;7.02;100.00;97042.88;5045171;28;20088;-50
2023/01/31 03:53:59;;;;;;;10.00;4.65;;;;;;;6.78;100.00;97038.44;5038246;28;20068;-52
2023/01/31 03:56:30;;;;;;;7.60;3.67;;;;;;;7.11;100.00;97045.69;5037549;28;20137;-56
2023/01/31 03:59:03;;;;;;;7.88;3.75;;;;;;;6.92;100.00;97044.47;5038153;28;20313;-53
2023/01/31 04:01:33;;;;;;;6.72;3.55;;;;;;;7.10;100.00;97046.66;5042798;28;20128;-51
2023/01/31 04:04:05;;;;;;;6.35;3.88;;;;;;;7.05;100.00;97043.50;5041236;28;20524;-55
2023/01/31 04:06:35;;;;;;;8.57;4.22;;;;;;;6.74;100.00;97036.13;5042657;28;20580;-55
2023/01/31 04:09:04;;;;;;;6.22;3.50;;;;;;;6.79;100.00;97049.75;5040390;28;20088;-57
2023/01/31 04:11:37;;;;;;;11.32;3.35;;;;;;;6.89;100.00;97056.88;5042967;28;20528;-55
2023/01/31 04:14:05;;;;;;;7.00;4.32;;;;;;;6.78;100.00;97056.78;5041429;28;20092;-49
2023/01/31 04:16:34;;;;;;;9.18;5.00;;;;;;;6.62;100.00;97062.22;5039919;28;20089;-53
2023/01/31 04:19:02;;;;;;;6.43;3.95;;;;;;;6.72;100.00;97061.59;5048056;28;20084;-57
2023/01/31 04:21:30;;;;;;;6.07;3.28;;;;;;;7.04;100.00;97070.69;5046029;28;20087;-52
2023/01/31 04:24:00;;;;;;;5.85;3.85;;;;;;;6.69;100.00;97069.69;5037079;28;20128;-54
2023/01/31 04:26:29;;;;;;;7.82;4.57;;;;;;;6.82;100.00;97060.03;5039440;28;20081;-56
2023/01/31 04:28:57;;;;;;;7.97;3.70;;;;;;;6.90;100.00;97066.41;5038893;28;20081;-51
2023/01/31 04:31:25;;;;;;;5.25;3.03;;;;;;;7.05;100.00;97074.13;5039437;28;20492;-54
2023/01/31 04:33:54;;;;;;;10.35;4.43;;;;;;;7.01;100.00;97083.16;5036995;28;20152;-53
2023/01/31 04:36:23;;;;;;;9.60;4.05;;;;;;;6.63;100.00;97086.66;5046028;28;20084;-56
2023/01/31 04:38:51;;;;;;;5.65;3.55;;;;;;;7.27;100.00;97091.84;5040000;28;21172;-53
2023/01/31 04:41:21;;;;;;;8.23;4.07;;;;;;;6.89;100.00;97092.75;5039206;28;20136;-53
2023/01/31 04:43:49;;;;;;;6.13;3.87;;;;;;;6.56;100.00;97104.56;5042043;28;20461;-51
2023/01/31 04:46:17;;;;;;;6.35;3.38;;;;;;;6.86;100.00;97109.50;5045571;28;20140;-53
2023/01/31 04:48:46;;;;;;;7.50;3.75;;;;;;;6.93;100.00;97104.69;5038727;28;20476;-53
2023/01/31 04:51:14;;;;;;;7.70;4.10;;;;;;;6.84;100.00;97098.28;5044481;28;20128;-57
2023/01/31 04:53:43;;;;;;;6.13;3.72;;;;;;;6.78;100.00;97114.44;5039853;28;20076;-55
2023/01/31 04:56:11;;;;;;;8.27;4.78;;;;;;;6.66;100.00;97115.28;5036906;28;20136;-56
2023/01/31 04:58:42;;;;;;;7.38;3.60;;;;;;;6.94;100.00;97121.25;5038185;28;20526;-53
2023/01/31 05:01:10;;;;;;;;;;;;;;;6.95;100.00;97113.28;5041368;28;20128;-56
2023/01/31 05:03:38;;;;;;;6.90;3.30;;;;;;;7.06;100.00;97115.16;5040446;28;20027;-55
2023/01/31 05:06:07;;;;;;;8.68;3.95;;;;;;;6.70;100.00;97119.34;5038778;28;20143;-56
2023/01/31 05:08:35;;;;;;;8.10;3.05;;;;;;;7.03;100.00;97115.38;5034635;28;20131;-52
2023/01/31 05:11:05;;;;;;;7.38;3.97;;;;;;;6.61;100.00;97120.00;5036757;28;20140;-56
2023/01/31 05:13:36;;;;;;;10.13;3.88;;;;;;;6.82;100.00;97113.28;5042423;28;20135;-55
2023/01/31 05:16:09;;;;;;;9.75;3.75;;;;;;;6.89;100.00;97118.94;5038537;28;20148;-52
2023/01/31 05:18:38;;;;;;;7.30;3.90;;;;;;;6.77;100.00;97104.88;5038133;28;20576;-52
2023/01/31 05:21:07;;;;;;;4.28;2.85;;;;;;;7.12;100.00;97114.72;5039651;28;20091;-54
2023/01/31 05:23:36;;;;;;;7.03;4.00;;;;;;;6.54;100.00;97110.88;5039462;28;20144;-53
2023/01/31 05:26:05;;;;;;;7.72;3.95;;;;;;;6.44;100.00;97112.44;5035282;28;20484;-53
2023/01/31 05:28:33;;;;;;;8.93;3.85;;;;;;;6.72;100.00;97116.66;5040338;28;20099;-53
2023/01/31 05:31:03;;;;;;;5.90;4.05;;;;;;;6.81;100.00;97113.38;5037247;28;20289;-53
2023/01/31 05:33:33;;;;;;;6.30;3.22;;;;;;;6.65;100.00;97121.47;5040217;28;20472;-54
2023/01/31 05:36:02;;;;;;;8.53;3.97;;;;;;;6.81;100.00;97124.72;5036502;28;20172;-56
2023/01/31 05:38:31;;;;;;;6.70;3.83;;;;;;;6.79;100.00;97117.91;5057725;28;20077;-57
2023/01/31 05:40:59;;;;;;;6.15;3.75;;;;;;;6.93;100.00;97127.44;5058497;28;20106;-56
2023/01/31 05:43:27;;;;;;;10.18;3.33;;;;;;;7.00;100.00;97131.31;5052352;28;20486;-55
2023/01/31 05:45:55;;;;;;;5.93;3.78;;;;;;;7.16;100.00;97137.19;5055586;28;20476;-55
2023/01/31 05:48:24;;;;;;;10.65;5.20;;;;;;;6.96;100.00;97146.44;5056261;28;20083;-52
2023/01/31 05:50:53;;;;;;;11.38;4.50;;;;;;;7.07;100.00;97137.81;5055575;28;20728;-57
2023/01/31 05:53:22;;;;;;;9.73;5.33;;;;;;;6.82;100.00;97138.66;5053776;28;20091;-56
2023/01/31 05:55:50;;;;;;;7.00;4.07;;;;;;;6.81;100.00;97139.59;5058773;28;20712;-50
2023/01/31 05:58:18;;;;;;;8.45;4.78;;;;;;;6.58;100.00;97138.56;5053195;28;20568;-54
2023/01/31 06:00:47;;;;;;;7.20;4.05;;;;;;;7.13;100.00;97132.16;5053725;28;20084;-50
2023/01/31 06:03:16;;;;;;;11.30;4.53;;;;;;;6.88;100.00;97131.22;5050287;28;20084;-51
2023/01/31 06:05:44;;;;;;;10.57;4.63;;;;;;;7.13;100.00;97125.13;5052625;28;20092;-56
2023/01/31 06:08:14;;;;;;;8.27;4.00;;;;;;;6.56;100.00;97116.84;5052385;28;20080;-53
2023/01/31 06:10:42;;;;;;;8.33;4.47;;;;;;;6.85;100.00;97122.75;5059863;28;20837;-52
2023/01/31 06:13:10;;;;;;;12.13;5.60;;;;;;;6.90;100.00;97120.63;5056241;28;20995;-53
2023/01/31 06:15:43;;;;;;;5.90;3.83;;;;;;;6.75;100.00;97125.16;5050444;28;20080;-53
2023/01/31 06:18:12;;;;;;;7.45;5.20;;;;;;;6.65;100.00;97118.84;5053324;28;20091;-54
2023/01/31 06:20:40;;;;;;;8.60;3.75;;;;;;;6.71;100.00;97121.06;5047928;28;20073;-51
2023/01/31 06:23:08;;;;;;;10.93;5.63;;;;;;;6.33;100.00;97106.13;5061934;28;20080;-49
2023/01/31 06:25:38;;;;;;;7.43;4.55;;;;;;;6.63;100.00;97126.78;5052867;28;20167;-52
2023/01/31 06:28:06;;;;;;;8.57;4.20;;;;;;;6.78;100.00;97135.41;5055771;28;20099;-51
2023/01/31 06:30:35;;;;;;;8.88;5.35;;;;;;;6.77;100.00;97149.44;5052049;28;20458;-50
2023/01/31 06:33:04;;;;;;;9.40;4.47;;;;;;;6.77;100.00;97146.81;5049750;28;20087;-54
2023/01/31 06:35:32;;;;;;;10.23;4.38;;;;;;;6.91;100.00;97148.50;5055059;28;20091;-50
2023/01/31 06:38:01;;;;;;;9.45;4.90;;;;;;;6.74;100.00;97151.44;5055712;28;20084;-56
2023/01/31 06:40:29;;;;;;;8.88;3.78;;;;;;;6.44;100.00;97146.50;5053806;28;20088;-51
2023/01/31 06:42:59;;;;;;;8.45;3.75;;;;;;;6.70;100.00;97153.44;5051453;28;20180;-47
2023/01/31 06:45:28;;;;;;;10.25;4.18;;;;;;;6.84;100.00;97149.88;5060041;28;20109;-52
2023/01/31 06:47:56;;;;;;;8.90;4.68;;;;;;;6.86;100.00;97151.47;5054150;28;20140;-52
2023/01/31 06:50:24;;;;;;;6.40;3.40;;;;;;;6.90;100.00;97157.34;5049822;28;20091;-54
2023/01/31 06:52:53;;;;;;;5.55;3.17;;;;;;;6.81;100.00;97169.28;5053718;28;20084;-56
2023/01/31 06:55:21;;;;;;;8.45;3.50;;;;;;;6.71;100.00;97160.38;5047528;28;20091;-58
2023/01/31 06:57:50;;;;;;;6.43;3.85;;;;;;;6.86;100.00;97158.50;5054072;28;20421;-52
2023/01/31 07:00:20;;;;;;;8.23;3.22;;;;;;;6.77;100.00;97157.31;5041777;28;20072;-56
2023/01/31 07:02:49;;;;;;;7.43;4.15;;;;;;;6.76;100.00;97162.69;5057681;28;20566;-56
2023/01/31 07:05:18;;;;;;;11.02;3.80;;;;;;;7.22;100.00;97157.72;5054928;28;20084;-54
2023/01/31 07:07:48;;;;;;;6.43;3.70;;;;;;;6.36;100.00;97179.25;5061859;28;20094;-53
2023/01/31 07:10:17;;;;;;;8.57;3.63;;;;;;;6.70;100.00;97157.84;5053467;28;20080;-53
2023/01/31 07:12:45;;;;;;;10.63;5.20;;;;;;;7.07;100.00;97157.00;5048588;28;20084;-53
2023/01/31 07:15:14;;;;;;;7.75;3.33;;;;;;;6.77;100.00;97167.81;5055812;28;20104;-53
2023/01/31 07:17:44;;;;;;;6.93;3.97;;;;;;;7.06;100.00;97165.84;5057301;28;20087;-47
2023/01/31 07:20:12;;;;;;;7.70;3.83;;;;;;;6.87;100.00;97161.00;5051645;28;20069;-50
2023/01/31 07:22:41;;;;;;;6.55;3.92;;;;;;;6.75;100.00;97158.38;5053003;28;20108;-49
2023/01/31 07:25:10;;;;;;;7.18;3.25;;;;;;;6.69;100.00;97174.50;5054511;28;20532;-53
2023/01/31 07:27:38;;;;;;;7.72;3.50;;;;;;;6.63;100.00;97178.38;5056269;28;20092;-57
2023/01/31 07:30:08;;;;;;;8.25;3.45;;;;;;;6.66;100.00;97183.41;5048884;28;20551;-53
2023/01/31 07:32:36;;;;;;;8.30;3.25;;;;;;;6.85;100.00;97170.75;5055840;28;20076;-53
2023/01/31 07:35:07;;;;;;;8.93;3.97;;;;;;;6.89;100.00;97172.22;5053443;28;20079;-51
2023/01/31 07:37:35;;;;;;;7.88;3.47;;;;;;;6.93;100.00;97172.84;5049529;28;20069;-52
2023/01/31 07:40:05;;;;;;;8.95;3.80;;;;;;;6.57;100.00;97165.69;5051310;28;20083;-56
2023/01/31 07:42:33;;;;;;;6.05;3.03;;;;;;;6.92;100.00;97168.56;5046021;28;20076;-50
2023/01/31 07:45:01;;;;;;;8.43;3.83;;;;;;;6.81;100.00;97171.91;5050597;28;20087;-56
2023/01/31 07:47:49;;;;;;;8.68;3.85;;;;;;;6.69;100.00;97179.75;5048628;28;20483;-53
2023/01/31 07:50:20;;;;;;;8.60;3.70;;;;;;;6.98;100.00;97165.50;5052163;28;20075;-50
2023/01/31 07:52:49;;;;;;;5.07;3.08;;;;;;;7.29;100.00;97171.25;5042898;28;20092;-48
2023/01/31 07:55:18;;;;;;;8.40;4.28;;;;;;;7.18;100.00;97181.66;5048113;28;20089;-53
2023/01/31 07:57:46;;;;;;;7.63;4.50;;;;;;;7.34;100.00;97175.25;5056046;28;20089;-47
2023/01/31 08:05:51;;;;;;;8.68;3.95;;;;;;;7.31;100.00;97182.50;5058793;28;20080;-55
2023/01/31 08:08:19;;;;;;;8.65;4.28;;;;;;;7.72;100.00;97176.13;5056910;28;20080;-57
2023/01/31 08:10:48;;;;;;;7.80;4.15;;;;;;;7.15;100.00;97182.69;5050988;28;20073;-55
2023/01/31 08:13:16;;;;;;;8.13;3.60;;;;;;;7.35;100.00;97182.16;5052838;28;20088;-53
2023/01/31 08:15:44;;;;;;;12.93;4.80;;;;;;;7.08;100.00;97187.53;5052805;28;20084;-54
2023/01/31 08:18:13;;;;;;;10.52;3.35;;;;;;;7.00;100.00;97179.34;5037315;28;20072;-55
2023/01/31 08:20:41;;;;;;;6.53;3.55;;;;;;;7.55;100.00;97183.41;5044343;28;21945;-52
2023/01/31 08:23:11;;;;;;;7.20;3.88;;;;;;;7.05;100.00;97197.38;5055164;28;20060;-50
2023/01/31 08:25:39;;;;;;;10.90;4.80;;;;;;;8.02;100.00;97192.31;5048681;28;20064;-50
2023/01/31 08:28:07;;;;;;;9.43;4.15;;;;;;;7.92;100.00;97190.47;5061526;28;20081;-51
2023/01/31 08:30:40;;;;;;;10.50;3.17;;;;;;;7.31;100.00;97193.00;5034130;28;20068;-53
2023/01/31 08:33:09;;;;;;;10.73;4.00;;;;;;;7.69;100.00;97186.84;5058827;28;20084;-53
2023/01/31 08:35:38;;;;;;;10.65;4.80;;;;;;;7.81;100.00;97188.56;5057995;28;20080;-54
2023/01/31 08:38:06;;;;;;;9.57;4.18;;;;;;;7.63;100.00;97190.72;5061237;28;20084;-50
2023/01/31 08:40:45;;;;;;;9.02;3.38;;;;;;;7.44;100.00;97195.59;5046800;28;20080;-51
2023/01/31 08:43:13;;;;;;;13.30;4.03;;;;;;;8.08;100.00;97183.13;5062985;28;20088;-48
2023/01/31 08:45:42;;;;;;;12.18;4.22;;;;;;;7.44;100.00;97190.38;5058575;28;20477;-51
2023/01/31 08:48:10;;;;;;;7.82;3.40;;;;;;;7.34;100.00;97198.84;5050228;28;20084;-49
2023/01/31 08:50:38;;;;;;;7.50;3.28;;;;;;;7.72;100.00;97192.72;5061884;28;20081;-56
2023/01/31 08:53:07;;;;;;;7.30;3.45;;;;;;;8.06;100.00;97191.13;5059221;28;20673;-52
2023/01/31 08:55:36;;;;;;;7.82;3.35;;;;;;;7.56;100.00;97189.47;5052561;28;20081;-53
2023/01/31 08:58:06;;;;;;;7.30;3.70;;;;;;;7.97;100.00;97191.78;5048704;28;20510;-52
2023/01/31 09:00:34;;;;;;;10.03;3.90;;;;;;;8.63;100.00;97194.88;5046269;28;20099;-51
2023/01/31 09:03:03;;;;;;;5.68;3.25;;;;;;;8.19;100.00;97191.09;5054487;28;20498;-50
2023/01/31 09:05:32;;;;;;;9.38;3.25;;;;;;;8.18;100.00;97188.56;5056231;28;20235;-52
2023/01/31 09:08:00;;;;;;;8.50;3.53;;;;;;;8.65;100.00;97187.72;5048530;28;20085;-52
2023/01/31 09:10:29;;;;;;;7.28;3.47;;;;;;;8.73;100.00;97185.34;5047642;28;20081;-54
2023/01/31 09:12:59;;;;;;;6.63;3.40;;;;;;;8.76;100.00;97186.91;5047728;28;20084;-56
2023/01/31 09:15:28;;;;;;;7.53;3.50;;;;;;;8.92;100.00;97176.06;5049768;28;20195;-51
2023/01/31 09:17:57;;;;;;;7.55;3.95;;;;;;;8.55;100.00;97176.22;5045909;28;20088;-52
2023/01/31 09:20:25;;;;;;;6.50;3.38;;;;;;;7.82;97.78;97192.91;5047637;28;20088;-51
2023/01/31 09:22:53;;;;;;;10.65;4.13;;;;;;;8.45;100.00;97189.19;5052392;28;20084;-52
2023/01/31 09:25:22;;;;;;;8.88;3.55;;;;;;;8.24;100.00;97182.88;5046030;28;20080;-51
2023/01/31 09:28:09;;;;;;;4.97;3.00;;;;;;;8.67;100.00;97193.72;5052267;28;20084;-56
2023/01/31 09:30:39;;;;;;;8.05;3.03;;;;;;;8.78;89.91;97191.09;5045827;28;20085;-53
2023/01/31 09:33:07;;;;;;;5.73;3.40;;;;;;;8.65;97.75;97192.13;5049917;28;20087;-54
2023/01/31 09:35:36;;;;;;;5.13;3.17;;;;;;;8.82;90.36;97181.19;5047295;28;20077;-50
2023/01/31 09:38:04;;;;;;;9.50;3.53;;;;;;;8.85;83.68;97183.59;5052025;28;20081;-50
2023/01/31 09:40:34;;;;;;;8.23;2.75;;;;;;;8.64;85.81;97196.56;5048863;28;20077;-54
2023/01/31 09:43:03;;;;;;;6.50;3.30;;;;;;;8.86;95.14;97182.63;5046378;28;20087;-53
2023/01/31 09:45:33;;;;;;;6.22;3.28;;;;;;;8.76;88.77;97198.25;5048030;28;20091;-55
2023/01/31 09:48:03;;;;;;;7.70;3.65;;;;;;;8.90;94.56;97204.28;5045516;28;20095;-48
2023/01/31 09:50:35;;;;;;;5.40;3.47;;;;;;;8.50;88.48;97199.38;5046714;28;20088;-52
2023/01/31 09:53:04;;;;;;;7.47;3.75;;;;;;;8.78;85.59;97204.25;5051042;28;20084;-52
2023/01/31 09:55:36;;;;;;;9.75;3.15;;;;;;;8.46;84.45;97185.59;5049572;28;20077;-49
2023/01/31 09:58:12;;;;;;;6.22;3.33;;;;;;;8.79;85.53;97179.63;5047292;28;20147;-52
2023/01/31 10:00:47;;;;;;;8.32;3.22;;;;;;;8.97;78.85;97177.38;5044082;28;20081;-54
2023/01/31 10:03:40;;;;;;;7.57;3.05;;;;;;;9.69;86.39;97173.59;5047604;28;20087;-53
2023/01/31 10:06:14;;;;;;;9.65;3.25;;;;;;;9.26;74.08;97169.91;5051368;28;20088;-51
2023/01/31 10:08:50;;;;;;;5.70;3.10;;;;;;;9.36;80.74;97166.53;5050871;28;20084;-51
2023/01/31 10:11:27;;;;;;;3.90;2.65;;;;;;;9.32;76.97;97173.00;5049803;28;20083;-51
2023/01/31 10:13:59;;;;;;;6.57;2.85;;;;;;;9.17;76.78;97172.41;5060704;28;20087;-49
2023/01/31 10:16:31;;;;;;;10.63;3.35;;;;;;;9.46;77.07;97160.47;5051957;28;20081;-55
2023/01/31 10:19:03;;;;;;;8.40;3.00;;;;;;;9.13;80.22;97176.22;5051621;28;20056;-53
2023/01/31 10:21:36;;;;;;;8.63;3.10;;;;;;;9.44;88.14;97157.09;5049272;28;20091;-52
2023/01/31 10:24:09;;;;;;;5.60;2.45;;;;;;;8.95;85.05;97163.53;5057143;28;20095;-51
2023/01/31 10:26:40;;;;;;;9.10;3.13;;;;;;;8.59;77.51;97164.50;5046309;28;20076;-51
2023/01/31 10:29:13;;;;;;;6.75;3.00;;;;;;;9.17;73.48;97162.72;5047170;28;20093;-52
2023/01/31 10:31:44;;;;;;;9.77;3.10;;;;;;;9.33;74.71;97162.38;5046462;28;20080;-51
2023/01/31 10:34:17;;;;;;;5.35;2.35;;;;;;;9.49;75.02;97152.28;5051048;28;20606;-50
2023/01/31 10:36:50;;;;;;;8.35;3.70;;;;;;;8.91;70.40;97155.97;5042564;28;20103;-54
2023/01/31 10:39:21;;;;;;;7.57;3.40;;;;;;;9.73;75.40;97159.22;5046453;28;20494;-53
2023/01/31 10:42:03;;;;;;;7.53;2.70;;;;;;;9.81;73.42;97156.00;5044926;28;20084;-52
2023/01/31 10:44:42;;;;;;;8.88;3.20;;;;;;;8.49;78.57;97159.09;5045614;28;20099;-52
2023/01/31 10:47:12;;;;;;;7.07;2.88;;;;;;;9.06;68.26;97141.66;5046520;28;20083;-52
2023/01/31 10:49:45;;;;;;;6.25;2.50;;;;;;;9.25;74.96;97143.69;5047120;28;20080;-53
2023/01/31 10:52:32;;;;;;;9.68;2.95;;;;;;;9.13;73.96;97136.75;5045503;28;20080;-54
2023/01/31 10:55:08;;;;;;;5.47;2.45;;;;;;;9.38;74.75;97133.88;5048495;28;20076;-55
2023/01/31 10:57:36;;;;;;;10.73;2.97;;;;;;;9.51;75.46;97134.59;5045463;28;20640;-51
2023/01/31 11:00:06;;;;;;;5.05;3.00;;;;;;;8.96;74.25;97127.53;5049423;28;20088;-55
2023/01/31 11:02:34;;;;;;;4.23;2.40;;;;;;;9.41;75.29;97133.63;5047267;28;20087;-50
2023/01/31 11:05:04;;;;;;;4.75;2.53;;;;;;;9.20;72.09;97120.38;5046967;28;20513;-52
2023/01/31 11:07:33;;;;;;;6.05;2.30;;;;;;;9.17;71.62;97123.22;5047147;28;20477;-53
2023/01/31 11:10:20;;;;;;;5.88;2.72;;;;;;;8.94;69.50;97103.97;5042521;28;20080;-50
2023/01/31 11:12:54;;;;;;;5.35;2.55;;;;;;;9.68;73.91;97109.56;5045456;28;20088;-50
2023/01/31 11:15:24;;;;;;;8.88;2.50;;;;;;;9.42;68.34;97098.44;5045495;28;20069;-54
2023/01/31 11:17:53;;;;;;;8.40;2.75;;;;;;;9.17;67.02;97098.72;5045120;28;20567;-53
2023/01/31 11:20:25;;;;;;;4.10;2.33;;;;;;;9.14;72.37;97096.31;5043384;28;20080;-52
2023/01/31 11:22:54;;;;;;;4.55;2.22;;;;;;;9.48;69.33;97099.78;5044285;28;20091;-53
2023/01/31 11:25:25;;;;;;;6.88;2.40;;;;;;;9.64;68.08;97087.06;5046100;28;20084;-55
2023/01/31 11:27:56;;;;;;;4.60;2.30;;;;;;;9.49;67.57;97085.63;5056671;28;20095;-54
2023/01/31 11:30:28;;;;;;;3.03;2.20;;;;;;;9.73;67.93;97062.59;5047086;28;20704;-53
2023/01/31 11:32:57;;;;;;;2.92;1.73;;;;;;;9.82;65.21;97071.56;5046855;28;20490;-49
2023/01/31 11:35:29;;;;;;;5.22;2.92;;;;;;;9.68;61.84;97066.59;5043692;28;20415;-56
2023/01/31 11:38:00;;;;;;;4.95;2.08;;;;;;;9.79;65.00;97068.34;5042078;28;20088;-53
2023/01/31 11:40:32;;;;;;;6.13;2.63;;;;;;;9.71;61.54;97053.16;5048543;28;20088;-55
2023/01/31 11:43:02;;;;;;;6.30;2.83;;;;;;;9.71;62.21;97040.84;5051287;28;20073;-51
2023/01/31 11:45:32;;;;;;;5.15;2.30;;;;;;;9.43;64.46;97036.13;5056838;28;20092;-53
2023/01/31 11:48:07;;;;;;;7.43;2.83;;;;;;;9.70;62.79;97035.66;5052916;28;21672;-50
2023/01/31 11:50:39;;;;;;;6.00;2.50;;;;;;;8.99;65.22;97024.72;5053027;28;20091;-52
2023/01/31 11:53:16;;;;;;;3.72;1.88;;;;;;;9.03;64.04;97028.75;5059702;28;20083;-53
2023/01/31 11:55:46;;;;;;;6.13;2.15;;;;;;;9.12;68.38;97021.91;5053685;28;20088;-51
2023/01/31 11:58:18;;;;;;;6.78;2.80;;;;;;;8.95;65.24;97020.66;5051070;28;20103;-53
2023/01/31 12:00:53;;;;;;;7.40;3.30;;;;;;;9.10;65.35;97014.16;5060800;28;20540;-54
2023/01/31 12:03:22;;;;;;;4.68;2.45;;;;;;;9.32;66.51;97018.53;5053627;28;20080;-53
2023/01/31 12:06:00;;;;;;;4.22;2.40;;;;;;;9.48;65.32;97005.00;5041484;28;20072;-52
2023/01/31 12:08:30;;;;;;;7.45;2.45;;;;;;;9.06;66.48;96982.97;5051124;28;20088;-54